Time;durP1;ratioP1;P1;durP2;ratioP2;P2;SDS_P1;SDS_P2;PMS_P1;PMS_P2;Temp;Humidity;BMP_temperature;BMP_pressure;BME280_temperature;BME280_humidity;BME280_pressure;Samples;Min_cycle;Max_cycle;Signal;HPM_P1;HPM_P2
2023/08/04 00:00:31;;;;;;;5.73;1.60;;;;;;;;;;5014376;28;20063;-69
2023/08/04 00:02:57;;;;;;;5.72;2.00;;;;;;;;;;5016537;28;20282;-69
2023/08/04 00:05:24;;;;;;;6.30;1.88;;;;;;;;;;5013744;28;20033;-68
2023/08/04 00:07:50;;;;;;;6.63;1.70;;;;;;;;;;5012371;28;20085;-70
2023/08/04 00:10:15;;;;;;;4.30;1.70;;;;;;;;;;5011642;28;20154;-70
2023/08/04 00:12:40;;;;;;;6.03;1.70;;;;;;;;;;5008913;28;20047;-72
2023/08/04 00:15:06;;;;;;;6.53;1.80;;;;;;;;;;5010465;28;20251;-72
2023/08/04 00:17:33;;;;;;;6.65;1.90;;;;;;;;;;5013815;28;20252;-68
2023/08/04 00:19:58;;;;;;;5.53;1.80;;;;;;;;;;5014198;28;20131;-68
2023/08/04 00:22:23;;;;;;;5.13;2.35;;;;;;;;;;5025377;28;20021;-68
2023/08/04 00:24:49;;;;;;;4.40;1.20;;;;;;;;;;5012666;28;20029;-69
2023/08/04 00:27:14;;;;;;;3.70;1.30;;;;;;;;;;5014377;28;20323;-76
2023/08/04 00:29:41;;;;;;;5.27;1.40;;;;;;;;;;5019091;28;20611;-68
2023/08/04 00:32:07;;;;;;;3.85;1.10;;;;;;;;;;5015247;28;20056;-67
2023/08/04 00:34:34;;;;;;;4.10;1.15;;;;;;;;;;5048411;28;20124;-67
2023/08/04 00:37:00;;;;;;;4.72;1.40;;;;;;;;;;5019292;28;20025;-68
2023/08/04 00:39:25;;;;;;;4.33;1.30;;;;;;;;;;5016031;28;20033;-69
2023/08/04 00:41:50;;;;;;;5.40;1.42;;;;;;;;;;5022322;28;20798;-70
2023/08/04 00:44:15;;;;;;;4.67;1.50;;;;;;;;;;5012141;28;20563;-69
2023/08/04 00:46:41;;;;;;;4.20;1.23;;;;;;;;;;5016205;28;20131;-68
2023/08/04 00:49:07;;;;;;;4.47;1.40;;;;;;;;;;5012433;28;20263;-69
2023/08/04 00:51:32;;;;;;;5.50;1.35;;;;;;;;;;5012601;28;20013;-69
2023/08/04 00:53:58;;;;;;;4.35;1.23;;;;;;;;;;5013336;28;20029;-68
2023/08/04 00:56:23;;;;;;;4.82;1.38;;;;;;;;;;5014809;28;20034;-67
2023/08/04 00:58:51;;;;;;;6.10;1.37;;;;;;;;;;5016620;28;20104;-70
2023/08/04 01:01:16;;;;;;;6.05;2.20;;;;;;;;;;5015180;28;20918;-69
2023/08/04 01:03:42;;;;;;;5.88;1.30;;;;;;;;;;5024664;28;20036;-67
2023/08/04 01:06:14;;;;;;;5.30;1.20;;;;;;;;;;5028439;28;20032;-69
2023/08/04 01:08:46;;;;;;;3.83;1.17;;;;;;;;;;5014376;28;20034;-67
2023/08/04 01:11:13;;;;;;;5.07;1.20;;;;;;;;;;5042491;28;20045;-65
2023/08/04 01:13:39;;;;;;;3.25;0.95;;;;;;;;;;5009068;28;20026;-66
2023/08/04 01:16:06;;;;;;;3.60;1.10;;;;;;;;;;5012230;28;20071;-65
2023/08/04 01:18:32;;;;;;;4.53;1.20;;;;;;;;;;5029378;28;20131;-67
2023/08/04 01:21:01;;;;;;;4.55;1.30;;;;;;;;;;5010163;28;21363;-67
2023/08/04 01:23:27;;;;;;;4.18;1.33;;;;;;;;;;5013008;28;20712;-66
2023/08/04 01:25:54;;;;;;;5.23;1.00;;;;;;;;;;5012610;28;20029;-66
2023/08/04 01:28:20;;;;;;;3.83;1.08;;;;;;;;;;5026545;28;20284;-69
2023/08/04 01:30:48;;;;;;;3.58;1.20;;;;;;;;;;5015366;28;20022;-67
2023/08/04 01:33:14;;;;;;;4.05;1.17;;;;;;;;;;5007722;28;20022;-69
2023/08/04 01:35:40;;;;;;;4.22;1.25;;;;;;;;;;5016691;28;20601;-68
2023/08/04 01:38:07;;;;;;;4.18;1.20;;;;;;;;;;5012421;28;20614;-68
2023/08/04 01:40:32;;;;;;;4.82;1.42;;;;;;;;;;5015573;28;20022;-68
2023/08/04 01:43:00;;;;;;;4.07;0.90;;;;;;;;;;5015441;28;20040;-67
2023/08/04 01:45:25;;;;;;;5.20;1.10;;;;;;;;;;5009355;28;20402;-68
2023/08/04 01:47:53;;;;;;;4.47;1.27;;;;;;;;;;5014192;28;20022;-65
2023/08/04 01:50:18;;;;;;;4.82;1.23;;;;;;;;;;5010937;28;20390;-69
2023/08/04 01:52:43;;;;;;;4.03;0.98;;;;;;;;;;5010673;28;20463;-69
2023/08/04 01:55:11;;;;;;;4.07;1.20;;;;;;;;;;5012051;28;20033;-67
2023/08/04 01:57:36;;;;;;;3.50;1.20;;;;;;;;;;5013651;28;20252;-68
2023/08/04 02:00:02;;;;;;;5.20;1.30;;;;;;;;;;5010890;28;20119;-67
2023/08/04 02:02:28;;;;;;;4.72;1.30;;;;;;;;;;5025424;28;20414;-70
2023/08/04 02:04:53;;;;;;;5.45;1.35;;;;;;;;;;5014954;28;20601;-68
2023/08/04 02:07:18;;;;;;;2.70;1.03;;;;;;;;;;5019170;28;20057;-67
2023/08/04 02:09:46;;;;;;;3.90;0.97;;;;;;;;;;5014481;28;20260;-70
2023/08/04 02:12:11;;;;;;;3.67;1.00;;;;;;;;;;5012286;28;20367;-68
2023/08/04 02:14:36;;;;;;;3.70;1.90;;;;;;;;;;5012479;28;20473;-65
2023/08/04 02:17:02;;;;;;;4.15;1.13;;;;;;;;;;5012778;28;20268;-66
2023/08/04 02:19:27;;;;;;;3.92;1.30;;;;;;;;;;5010831;28;20056;-69
2023/08/04 02:21:54;;;;;;;3.93;1.10;;;;;;;;;;5013299;28;20045;-69
2023/08/04 02:24:22;;;;;;;5.20;1.10;;;;;;;;;;5010252;28;20382;-67
2023/08/04 02:26:52;;;;;;;5.40;1.23;;;;;;;;;;5014644;28;20112;-67
2023/08/04 02:29:17;;;;;;;3.75;1.10;;;;;;;;;;5029399;28;20013;-66
2023/08/04 02:31:42;;;;;;;3.20;1.17;;;;;;;;;;5011453;28;20044;-69
2023/08/04 02:34:08;;;;;;;4.72;1.17;;;;;;;;;;5015234;28;20028;-68
2023/08/04 02:36:33;;;;;;;4.35;1.30;;;;;;;;;;5011401;28;20014;-68
2023/08/04 02:39:01;;;;;;;5.25;1.20;;;;;;;;;;5014529;28;20666;-72
2023/08/04 02:41:26;;;;;;;3.65;1.10;;;;;;;;;;5011349;28;20468;-67
2023/08/04 02:43:52;;;;;;;3.80;1.13;;;;;;;;;;5013418;28;20053;-67
2023/08/04 02:46:20;;;;;;;4.35;1.10;;;;;;;;;;5006596;28;21005;-68
2023/08/04 02:48:45;;;;;;;3.72;1.15;;;;;;;;;;5012115;28;20021;-65
2023/08/04 02:51:12;;;;;;;5.07;1.30;;;;;;;;;;5013150;28;20025;-68
2023/08/04 02:53:39;;;;;;;3.63;1.15;;;;;;;;;;5020720;28;20041;-67
2023/08/04 02:56:08;;;;;;;4.15;1.40;;;;;;;;;;5014952;28;20032;-68
2023/08/04 02:58:33;;;;;;;4.63;1.40;;;;;;;;;;5012867;28;20022;-66
2023/08/04 03:01:00;;;;;;;4.93;1.40;;;;;;;;;;5012298;28;20017;-67
2023/08/04 03:03:25;;;;;;;3.50;1.10;;;;;;;;;;5012127;28;20992;-68
2023/08/04 03:05:51;;;;;;;3.30;1.10;;;;;;;;;;5012295;28;20092;-69
2023/08/04 03:08:16;;;;;;;3.40;1.13;;;;;;;;;;5005712;28;20743;-67
2023/08/04 03:10:44;;;;;;;3.93;1.27;;;;;;;;;;5011895;28;20299;-66
2023/08/04 03:13:09;;;;;;;3.28;1.20;;;;;;;;;;5010087;28;20264;-67
2023/08/04 03:15:35;;;;;;;4.17;1.23;;;;;;;;;;5025927;28;20024;-67
2023/08/04 03:18:00;;;;;;;4.40;1.23;;;;;;;;;;5007813;28;20109;-69
2023/08/04 03:20:25;;;;;;;4.95;1.30;;;;;;;;;;5008860;28;20050;-69
2023/08/04 03:22:51;;;;;;;4.20;1.15;;;;;;;;;;5012091;28;20036;-69
2023/08/04 03:25:16;;;;;;;4.38;1.30;;;;;;;;;;5012837;28;20095;-67
2023/08/04 03:27:43;;;;;;;5.30;1.37;;;;;;;;;;5014358;28;20032;-68
2023/08/04 03:30:09;;;;;;;4.35;1.33;;;;;;;;;;5015571;28;20245;-69
2023/08/04 03:32:34;;;;;;;3.10;1.02;;;;;;;;;;5014240;28;20029;-66
2023/08/04 03:34:59;;;;;;;5.70;1.17;;;;;;;;;;5011552;28;20014;-69
2023/08/04 03:37:25;;;;;;;4.32;1.30;;;;;;;;;;5017133;28;20188;-69
2023/08/04 03:39:50;;;;;;;3.85;1.10;;;;;;;;;;5018865;28;20064;-69
2023/08/04 03:42:17;;;;;;;4.07;1.30;;;;;;;;;;5014444;28;20727;-68
2023/08/04 03:44:42;;;;;;;4.40;1.55;;;;;;;;;;5009490;28;20044;-70
2023/08/04 03:47:08;;;;;;;4.40;1.10;;;;;;;;;;4999467;28;20026;-69
2023/08/04 03:49:33;;;;;;;3.47;1.10;;;;;;;;;;4997965;28;20029;-69
2023/08/04 03:51:58;;;;;;;3.10;1.00;;;;;;;;;;4999982;28;20025;-63
2023/08/04 03:54:23;;;;;;;3.67;1.10;;;;;;;;;;5000643;28;20033;-69
2023/08/04 03:56:49;;;;;;;5.23;1.60;;;;;;;;;;4999533;28;20346;-67
2023/08/04 03:59:14;;;;;;;4.47;0.90;;;;;;;;;;5014574;28;20010;-68
2023/08/04 04:01:39;;;;;;;4.30;1.40;;;;;;;;;;5013799;28;20037;-66
2023/08/04 04:04:05;;;;;;;4.25;1.17;;;;;;;;;;5018159;28;21661;-68
2023/08/04 04:06:30;;;;;;;5.68;1.40;;;;;;;;;;5014463;28;20029;-69
2023/08/04 04:08:55;;;;;;;5.28;1.20;;;;;;;;;;5017036;28;20021;-67
2023/08/04 04:11:21;;;;;;;3.53;1.10;;;;;;;;;;5014775;28;20026;-69
2023/08/04 04:13:46;;;;;;;4.63;1.23;;;;;;;;;;5008128;28;20030;-67
2023/08/04 04:16:11;;;;;;;3.77;1.20;;;;;;;;;;5010013;28;20514;-66
2023/08/04 04:18:36;;;;;;;3.63;1.10;;;;;;;;;;5015633;28;20327;-66
2023/08/04 04:21:02;;;;;;;4.13;1.30;;;;;;;;;;5013058;28;20484;-66
2023/08/04 04:23:27;;;;;;;4.22;1.20;;;;;;;;;;5020738;28;20579;-69
2023/08/04 04:25:55;;;;;;;5.63;1.45;;;;;;;;;;5015769;28;21179;-67
2023/08/04 04:28:20;;;;;;;4.30;1.25;;;;;;;;;;5017327;28;20014;-67
2023/08/04 04:30:45;;;;;;;3.55;1.20;;;;;;;;;;5017143;28;20037;-65
2023/08/04 04:33:11;;;;;;;4.53;1.30;;;;;;;;;;5012521;28;20056;-61
2023/08/04 04:35:36;;;;;;;3.58;1.38;;;;;;;;;;5015955;28;20364;-68
2023/08/04 04:38:01;;;;;;;4.97;1.43;;;;;;;;;;5013657;28;20069;-66
2023/08/04 04:40:26;;;;;;;4.00;1.30;;;;;;;;;;5020898;28;20276;-69
2023/08/04 04:42:52;;;;;;;4.13;1.40;;;;;;;;;;5013161;28;20279;-67
2023/08/04 04:45:17;;;;;;;5.78;1.40;;;;;;;;;;5015792;28;20430;-68
2023/08/04 04:47:42;;;;;;;6.67;1.27;;;;;;;;;;5017311;28;20100;-69
2023/08/04 04:50:08;;;;;;;4.45;1.52;;;;;;;;;;5012383;28;20017;-68
2023/08/04 04:52:36;;;;;;;3.85;1.30;;;;;;;;;;5017841;28;20060;-69
2023/08/04 04:55:02;;;;;;;3.90;1.50;;;;;;;;;;5013325;28;20381;-66
2023/08/04 04:57:28;;;;;;;5.32;1.48;;;;;;;;;;5014359;28;20409;-68
2023/08/04 04:59:53;;;;;;;4.68;1.95;;;;;;;;;;5011468;28;20024;-65
2023/08/04 05:02:21;;;;;;;4.57;1.60;;;;;;;;;;5007238;28;20037;-67
2023/08/04 05:04:46;;;;;;;4.50;1.40;;;;;;;;;;5008569;28;20033;-65
2023/08/04 05:07:12;;;;;;;4.18;1.60;;;;;;;;;;5004075;28;20028;-67
2023/08/04 05:09:37;;;;;;;4.15;1.50;;;;;;;;;;5003438;28;20026;-64
2023/08/04 05:12:03;;;;;;;5.25;1.67;;;;;;;;;;5007593;28;20063;-64
2023/08/04 05:14:28;;;;;;;6.50;1.88;;;;;;;;;;5007819;28;20021;-66
2023/08/04 05:16:55;;;;;;;27.10;4.25;;;;;;;;;;5011267;28;20217;-67
2023/08/04 05:19:21;;;;;;;4.97;1.63;;;;;;;;;;5010480;28;20060;-68
2023/08/04 05:21:46;;;;;;;5.93;1.80;;;;;;;;;;5040298;28;20841;-67
2023/08/04 05:24:12;;;;;;;4.67;1.80;;;;;;;;;;5010824;28;20810;-66
2023/08/04 05:26:37;;;;;;;4.90;1.58;;;;;;;;;;5009182;28;20071;-66
2023/08/04 05:29:05;;;;;;;4.10;1.52;;;;;;;;;;5012446;28;20991;-66
2023/08/04 05:31:31;;;;;;;4.63;1.50;;;;;;;;;;5013144;28;20029;-66
2023/08/04 05:34:00;;;;;;;4.82;1.58;;;;;;;;;;5006341;28;20052;-65
2023/08/04 05:36:26;;;;;;;4.38;1.52;;;;;;;;;;5007064;28;20018;-67
2023/08/04 05:38:53;;;;;;;4.32;1.48;;;;;;;;;;5009295;28;20021;-66
2023/08/04 05:41:19;;;;;;;4.50;1.75;;;;;;;;;;5012976;28;20656;-67
2023/08/04 05:43:44;;;;;;;5.03;1.70;;;;;;;;;;5011370;28;20064;-69
2023/08/04 05:46:12;;;;;;;6.57;1.60;;;;;;;;;;5011481;28;20524;-66
2023/08/04 05:48:40;;;;;;;4.57;1.30;;;;;;;;;;5010071;28;20763;-68
2023/08/04 05:51:06;;;;;;;4.40;1.38;;;;;;;;;;5008327;28;20017;-68
2023/08/04 05:53:31;;;;;;;4.73;1.43;;;;;;;;;;5011399;28;20128;-69
2023/08/04 05:55:57;;;;;;;4.10;1.50;;;;;;;;;;5014049;28;20106;-66
2023/08/04 05:58:22;;;;;;;3.60;1.30;;;;;;;;;;5007403;28;20455;-68
2023/08/04 06:00:47;;;;;;;5.40;1.60;;;;;;;;;;5005436;28;20335;-69
2023/08/04 06:03:13;;;;;;;5.30;1.55;;;;;;;;;;5008206;28;20280;-69
2023/08/04 06:05:40;;;;;;;4.03;1.23;;;;;;;;;;5009502;28;20551;-69
2023/08/04 06:08:06;;;;;;;3.72;1.50;;;;;;;;;;5007852;28;20294;-68
2023/08/04 06:10:31;;;;;;;5.93;1.40;;;;;;;;;;5010197;28;20034;-68
2023/08/04 06:12:57;;;;;;;5.00;1.50;;;;;;;;;;5007039;28;20095;-67
2023/08/04 06:15:22;;;;;;;4.60;1.33;;;;;;;;;;5008239;28;20025;-67
2023/08/04 06:17:48;;;;;;;3.60;1.35;;;;;;;;;;5007633;28;20032;-69
2023/08/04 06:20:15;;;;;;;6.93;1.90;;;;;;;;;;5007471;28;20530;-68
2023/08/04 06:22:41;;;;;;;5.13;1.48;;;;;;;;;;5013846;28;20373;-68
2023/08/04 06:25:06;;;;;;;4.20;1.53;;;;;;;;;;5012111;28;20040;-69
2023/08/04 06:27:32;;;;;;;4.63;1.80;;;;;;;;;;5019101;28;20257;-69
2023/08/04 06:30:00;;;;;;;3.97;1.40;;;;;;;;;;5010300;28;20081;-67
2023/08/04 06:32:26;;;;;;;5.38;1.73;;;;;;;;;;5013040;28;20026;-68
2023/08/04 06:34:51;;;;;;;3.97;1.63;;;;;;;;;;5013001;28;20028;-66
2023/08/04 06:37:16;;;;;;;5.15;1.70;;;;;;;;;;5015121;28;20045;-67
2023/08/04 06:39:42;;;;;;;5.03;1.70;;;;;;;;;;5010724;28;20040;-68
2023/08/04 06:42:07;;;;;;;4.75;1.77;;;;;;;;;;5011501;28;20281;-68
2023/08/04 06:44:32;;;;;;;6.00;1.73;;;;;;;;;;5013660;28;20606;-67
2023/08/04 06:46:57;;;;;;;4.37;1.80;;;;;;;;;;5012014;28;20025;-68
2023/08/04 06:49:22;;;;;;;4.53;1.65;;;;;;;;;;5014314;28;20036;-68
2023/08/04 06:51:49;;;;;;;4.87;1.73;;;;;;;;;;5012127;28;20024;-67
2023/08/04 06:54:15;;;;;;;5.60;2.05;;;;;;;;;;5008998;28;20034;-66
2023/08/04 06:56:40;;;;;;;5.20;1.67;;;;;;;;;;5014863;28;20574;-68
2023/08/04 06:59:05;;;;;;;4.97;1.90;;;;;;;;;;5012565;28;20100;-68
2023/08/04 07:01:30;;;;;;;5.20;1.60;;;;;;;;;;5011078;28;20083;-68
2023/08/04 07:03:58;;;;;;;4.72;1.92;;;;;;;;;;5007960;28;20481;-67
2023/08/04 07:06:28;;;;;;;3.97;1.67;;;;;;;;;;5010820;28;20029;-69
2023/08/04 07:08:53;;;;;;;4.28;1.52;;;;;;;;;;5010265;28;20060;-67
2023/08/04 07:11:18;;;;;;;5.40;1.83;;;;;;;;;;5012572;28;20124;-69
2023/08/04 07:13:44;;;;;;;4.57;1.80;;;;;;;;;;5009823;28;21179;-70
2023/08/04 07:16:10;;;;;;;6.13;1.83;;;;;;;;;;5008558;28;20263;-70
2023/08/04 07:18:35;;;;;;;5.82;1.80;;;;;;;;;;5010273;28;20096;-67
2023/08/04 07:21:07;;;;;;;5.35;1.50;;;;;;;;;;5008914;28;20489;-68
2023/08/04 07:23:33;;;;;;;4.47;1.65;;;;;;;;;;5007377;28;20021;-69
2023/08/04 07:26:04;;;;;;;5.55;1.73;;;;;;;;;;5008290;28;20026;-66
2023/08/04 07:28:34;;;;;;;4.20;1.50;;;;;;;;;;5026646;28;20017;-66
2023/08/04 07:31:05;;;;;;;4.63;1.95;;;;;;;;;;5007673;28;20013;-67
2023/08/04 07:33:32;;;;;;;5.32;1.65;;;;;;;;;;5010843;28;20045;-66
2023/08/04 07:35:58;;;;;;;4.25;1.70;;;;;;;;;;5012068;28;20116;-68
2023/08/04 07:38:23;;;;;;;3.80;1.50;;;;;;;;;;5014906;28;20563;-69
2023/08/04 07:40:49;;;;;;;4.28;1.70;;;;;;;;;;5015325;28;20261;-69
2023/08/04 07:43:14;;;;;;;4.88;1.65;;;;;;;;;;5012917;28;20049;-67
2023/08/04 07:45:42;;;;;;;5.93;1.80;;;;;;;;;;5015591;28;20124;-69
2023/08/04 07:48:10;;;;;;;5.93;1.88;;;;;;;;;;5013591;28;20032;-68
2023/08/04 07:50:36;;;;;;;5.32;1.80;;;;;;;;;;5029622;28;20025;-69
2023/08/04 07:53:03;;;;;;;4.80;1.63;;;;;;;;;;5016735;28;20022;-67
2023/08/04 07:55:30;;;;;;;5.18;2.00;;;;;;;;;;5017625;28;20033;-67
2023/08/04 07:57:55;;;;;;;6.22;1.90;;;;;;;;;;5017652;28;20044;-70
2023/08/04 08:00:20;;;;;;;4.23;1.70;;;;;;;;;;5014075;28;20211;-65
2023/08/04 08:02:45;;;;;;;7.00;2.20;;;;;;;;;;5015871;28;20068;-68
2023/08/04 08:05:11;;;;;;;5.13;1.87;;;;;;;;;;5016044;28;20026;-66
2023/08/04 08:07:36;;;;;;;5.13;2.10;;;;;;;;;;5014092;28;20340;-68
2023/08/04 08:10:02;;;;;;;6.10;2.70;;;;;;;;;;5017316;28;20265;-67
2023/08/04 08:12:29;;;;;;;5.13;2.42;;;;;;;;;;5012890;28;20037;-68
2023/08/04 08:14:55;;;;;;;5.97;2.70;;;;;;;;;;5015356;28;20450;-69
2023/08/04 08:17:21;;;;;;;5.18;2.70;;;;;;;;;;5014382;28;20084;-67
2023/08/04 08:19:46;;;;;;;7.35;3.90;;;;;;;;;;5011851;28;20053;-69
2023/08/04 08:22:14;;;;;;;11.67;7.50;;;;;;;;;;5012565;28;20025;-67
2023/08/04 08:24:39;;;;;;;9.13;5.10;;;;;;;;;;5007631;28;20244;-68
2023/08/04 08:27:07;;;;;;;7.37;3.37;;;;;;;;;;5015139;28;20521;-68
2023/08/04 08:29:32;;;;;;;6.80;3.58;;;;;;;;;;5011043;28;20104;-67
2023/08/04 08:31:57;;;;;;;5.63;2.45;;;;;;;;;;5009335;28;20055;-68
2023/08/04 08:34:22;;;;;;;5.30;2.53;;;;;;;;;;5014177;28;20021;-69
2023/08/04 08:36:48;;;;;;;5.17;2.33;;;;;;;;;;5007029;28;20021;-66
2023/08/04 08:39:13;;;;;;;4.40;1.90;;;;;;;;;;5013398;28;20077;-69
2023/08/04 08:41:38;;;;;;;4.20;1.60;;;;;;;;;;5008054;28;20112;-67
2023/08/04 08:44:04;;;;;;;4.85;1.70;;;;;;;;;;5011530;28;20028;-67
2023/08/04 08:46:29;;;;;;;6.28;1.80;;;;;;;;;;5012594;28;20017;-68
2023/08/04 08:48:58;;;;;;;4.95;1.70;;;;;;;;;;5015098;28;20512;-69
2023/08/04 08:51:26;;;;;;;3.78;1.50;;;;;;;;;;5012384;28;20056;-67
2023/08/04 08:53:55;;;;;;;5.25;1.88;;;;;;;;;;5014398;28;20049;-68
2023/08/04 08:56:20;;;;;;;4.50;1.60;;;;;;;;;;5013729;28;20100;-68
2023/08/04 08:58:45;;;;;;;5.55;1.60;;;;;;;;;;5011794;28;20057;-67
2023/08/04 09:01:11;;;;;;;3.97;1.63;;;;;;;;;;5016346;28;20431;-67
2023/08/04 09:03:36;;;;;;;5.03;1.60;;;;;;;;;;5014537;28;20067;-66
2023/08/04 09:06:02;;;;;;;4.20;1.50;;;;;;;;;;5021105;28;20065;-67
2023/08/04 09:08:28;;;;;;;5.60;1.90;;;;;;;;;;5010755;28;20743;-67
2023/08/04 09:10:53;;;;;;;3.67;1.45;;;;;;;;;;5011956;28;20656;-67
2023/08/04 09:13:18;;;;;;;4.57;1.40;;;;;;;;;;5011412;28;20025;-66
2023/08/04 09:15:51;;;;;;;4.75;1.55;;;;;;;;;;5011981;28;20028;-67
2023/08/04 09:18:29;;;;;;;5.22;1.70;;;;;;;;;;5014765;28;20014;-66
2023/08/04 09:20:59;;;;;;;3.72;1.30;;;;;;;;;;5030791;28;20111;-67
2023/08/04 09:23:28;;;;;;;3.85;1.38;;;;;;;;;;5008712;28;20032;-67
2023/08/04 09:25:53;;;;;;;3.72;1.38;;;;;;;;;;5012090;28;20030;-66
2023/08/04 09:28:18;;;;;;;4.25;1.20;;;;;;;;;;5014403;28;20664;-65
2023/08/04 09:31:04;;;;;;;4.57;1.30;;;;;;;;;;5012607;28;20817;-66
2023/08/04 09:33:30;;;;;;;5.80;1.60;;;;;;;;;;5010702;28;20029;-65
2023/08/04 09:36:05;;;;;;;4.00;1.50;;;;;;;;;;5013702;28;20071;-67
2023/08/04 09:38:33;;;;;;;4.15;1.30;;;;;;;;;;5009351;28;20040;-63
2023/08/04 09:41:03;;;;;;;4.82;1.38;;;;;;;;;;5015273;28;20021;-64
2023/08/04 09:43:29;;;;;;;4.47;1.40;;;;;;;;;;5009741;28;20021;-64
2023/08/04 09:45:58;;;;;;;3.95;1.40;;;;;;;;;;5015080;28;20024;-64
2023/08/04 09:48:26;;;;;;;4.70;1.45;;;;;;;;;;5011524;28;20017;-65
2023/08/04 09:51:05;;;;;;;4.90;1.50;;;;;;;;;;5011122;28;20020;-65
2023/08/04 09:53:34;;;;;;;3.63;1.42;;;;;;;;;;5024504;28;20498;-64
2023/08/04 09:55:59;;;;;;;4.82;1.35;;;;;;;;;;5007850;28;20116;-65
2023/08/04 09:58:25;;;;;;;4.38;1.42;;;;;;;;;;5013156;28;20020;-61
2023/08/04 10:00:50;;;;;;;4.43;1.27;;;;;;;;;;5011246;28;20056;-65
2023/08/04 10:03:16;;;;;;;3.87;1.30;;;;;;;;;;5017319;28;20100;-65
2023/08/04 10:05:44;;;;;;;4.20;1.40;;;;;;;;;;5017689;28;20252;-64
2023/08/04 10:08:10;;;;;;;5.47;1.60;;;;;;;;;;5008190;28;20117;-64
2023/08/04 10:10:35;;;;;;;3.60;1.10;;;;;;;;;;5019355;28;20028;-65
2023/08/04 10:13:00;;;;;;;4.90;1.40;;;;;;;;;;5010089;28;20060;-64
2023/08/04 10:15:28;;;;;;;4.43;1.17;;;;;;;;;;5011574;28;20252;-64
2023/08/04 10:17:56;;;;;;;3.70;1.33;;;;;;;;;;5006014;28;20064;-64
2023/08/04 10:20:23;;;;;;;4.15;1.30;;;;;;;;;;5008314;28;20050;-64
2023/08/04 10:22:52;;;;;;;3.60;1.30;;;;;;;;;;5008138;28;20025;-65
2023/08/04 10:25:18;;;;;;;4.82;1.42;;;;;;;;;;5012109;28;20692;-65
2023/08/04 10:27:48;;;;;;;4.60;1.30;;;;;;;;;;5009765;28;20029;-65
2023/08/04 10:30:13;;;;;;;3.85;1.50;;;;;;;;;;5003483;28;20452;-65
2023/08/04 10:32:39;;;;;;;4.13;1.30;;;;;;;;;;5011190;28;20029;-64
2023/08/04 10:35:05;;;;;;;3.92;1.23;;;;;;;;;;5006196;28;20235;-64
2023/08/04 10:37:42;;;;;;;5.85;1.35;;;;;;;;;;5010761;28;20029;-66
2023/08/04 10:40:10;;;;;;;6.53;1.55;;;;;;;;;;5011458;28;20030;-66
2023/08/04 10:42:55;;;;;;;4.22;1.33;;;;;;;;;;5010769;28;20025;-66
2023/08/04 10:45:20;;;;;;;3.83;1.38;;;;;;;;;;5010790;28;20017;-66
2023/08/04 10:47:55;;;;;;;3.60;1.30;;;;;;;;;;5007896;28;20041;-65
2023/08/04 10:50:21;;;;;;;4.80;1.48;;;;;;;;;;5010962;28;21233;-65
2023/08/04 10:52:47;;;;;;;6.05;1.70;;;;;;;;;;5009063;28;20385;-66
2023/08/04 10:55:13;;;;;;;4.00;1.23;;;;;;;;;;5010527;28;20013;-66
2023/08/04 10:57:39;;;;;;;4.00;1.42;;;;;;;;;;5007368;28;20026;-66
2023/08/04 11:00:11;;;;;;;2.97;1.20;;;;;;;;;;5009539;28;20021;-64
2023/08/04 11:02:37;;;;;;;4.57;1.27;;;;;;;;;;5009260;28;20025;-65
2023/08/04 11:05:05;;;;;;;3.40;1.20;;;;;;;;;;5012337;28;20467;-65
2023/08/04 11:07:32;;;;;;;3.67;1.10;;;;;;;;;;5012469;28;20010;-65
2023/08/04 11:10:03;;;;;;;4.13;1.40;;;;;;;;;;5010691;28;20271;-66
2023/08/04 11:12:28;;;;;;;3.97;1.40;;;;;;;;;;5015108;28;20029;-65
2023/08/04 11:14:53;;;;;;;3.83;1.30;;;;;;;;;;5014487;28;20917;-66
2023/08/04 11:17:20;;;;;;;3.70;1.37;;;;;;;;;;5010208;28;20099;-65
2023/08/04 11:19:46;;;;;;;4.43;1.40;;;;;;;;;;5014269;28;20136;-65
2023/08/04 11:22:13;;;;;;;4.38;1.48;;;;;;;;;;5016377;28;20048;-66
2023/08/04 11:24:41;;;;;;;4.68;1.60;;;;;;;;;;5015444;28;20037;-66
2023/08/04 11:27:07;;;;;;;4.18;1.45;;;;;;;;;;5012462;28;20025;-64
2023/08/04 11:29:32;;;;;;;6.05;1.60;;;;;;;;;;5015763;28;20020;-64
2023/08/04 11:31:57;;;;;;;5.75;1.40;;;;;;;;;;5012333;28;20029;-65
2023/08/04 11:34:26;;;;;;;6.63;1.60;;;;;;;;;;5009130;28;20579;-65
2023/08/04 11:36:51;;;;;;;5.53;1.60;;;;;;;;;;4998743;28;20204;-66
2023/08/04 11:39:16;;;;;;;5.00;1.30;;;;;;;;;;5009355;28;20397;-67
2023/08/04 11:41:43;;;;;;;3.87;1.30;;;;;;;;;;5012750;28;20107;-66
2023/08/04 11:44:09;;;;;;;3.25;1.10;;;;;;;;;;5019038;28;20032;-66
2023/08/04 11:46:34;;;;;;;4.93;1.10;;;;;;;;;;5025900;28;20021;-66
2023/08/04 11:49:01;;;;;;;2.97;1.02;;;;;;;;;;5015701;28;20827;-66
2023/08/04 11:51:27;;;;;;;3.50;1.20;;;;;;;;;;5010826;28;20073;-65
2023/08/04 11:53:52;;;;;;;3.47;1.20;;;;;;;;;;5014443;28;20033;-66
2023/08/04 11:56:17;;;;;;;4.57;1.20;;;;;;;;;;5015486;28;21025;-68
2023/08/04 11:58:47;;;;;;;4.07;1.20;;;;;;;;;;5012011;28;20275;-65
2023/08/04 12:01:14;;;;;;;;;;;;;;;;;;5016972;28;20024;-65
2023/08/04 12:03:49;;;;;;;2.95;1.10;;;;;;;;;;5013945;28;19956;-67
2023/08/04 12:06:21;;;;;;;4.55;1.70;;;;;;;;;;5025636;28;20034;-66
2023/08/04 12:08:58;;;;;;;4.20;1.35;;;;;;;;;;5016292;28;20022;-65
2023/08/04 12:11:25;;;;;;;3.80;1.40;;;;;;;;;;5015847;28;20033;-66
2023/08/04 12:13:50;;;;;;;5.40;1.50;;;;;;;;;;5011499;28;20110;-67
2023/08/04 12:16:17;;;;;;;4.60;1.40;;;;;;;;;;5015622;28;20220;-67
2023/08/04 12:18:43;;;;;;;3.92;1.20;;;;;;;;;;5021362;28;20029;-67
2023/08/04 12:21:11;;;;;;;5.53;1.38;;;;;;;;;;5018880;28;20069;-66
2023/08/04 12:23:37;;;;;;;3.60;1.10;;;;;;;;;;5024646;28;20056;-67
2023/08/04 12:26:03;;;;;;;3.58;1.30;;;;;;;;;;5007608;28;20799;-65
2023/08/04 12:28:31;;;;;;;3.75;1.20;;;;;;;;;;5006533;28;20017;-66
2023/08/04 12:30:56;;;;;;;3.90;1.30;;;;;;;;;;5009147;28;20040;-66
2023/08/04 12:33:21;;;;;;;4.10;1.17;;;;;;;;;;5009728;28;20033;-66
2023/08/04 12:35:49;;;;;;;3.93;1.30;;;;;;;;;;5010809;28;20248;-66
2023/08/04 12:38:16;;;;;;;4.68;1.30;;;;;;;;;;5020234;28;20247;-64
2023/08/04 12:40:41;;;;;;;5.60;1.60;;;;;;;;;;5013633;28;20029;-66
2023/08/04 12:43:07;;;;;;;4.78;1.25;;;;;;;;;;5012622;28;20021;-65
2023/08/04 12:45:32;;;;;;;5.28;1.42;;;;;;;;;;5002794;28;20905;-66
2023/08/04 12:47:58;;;;;;;3.90;1.13;;;;;;;;;;5016677;28;20639;-67
2023/08/04 12:50:23;;;;;;;4.93;1.48;;;;;;;;;;5010644;28;20075;-66
2023/08/04 12:52:51;;;;;;;3.70;1.20;;;;;;;;;;5010620;28;20029;-66
2023/08/04 12:55:16;;;;;;;4.40;1.15;;;;;;;;;;5008678;28;20163;-66
2023/08/04 12:57:41;;;;;;;2.83;1.05;;;;;;;;;;4995283;28;20061;-66
2023/08/04 13:00:09;;;;;;;5.20;1.20;;;;;;;;;;5003348;28;20488;-65
2023/08/04 13:02:37;;;;;;;4.00;1.27;;;;;;;;;;5005166;28;20103;-66
2023/08/04 13:05:03;;;;;;;5.15;1.30;;;;;;;;;;4997137;28;20112;-66
2023/08/04 13:07:28;;;;;;;3.72;1.25;;;;;;;;;;5002786;28;20051;-67
2023/08/04 13:09:53;;;;;;;4.13;1.10;;;;;;;;;;5008969;28;20687;-67
2023/08/04 13:12:20;;;;;;;4.03;1.20;;;;;;;;;;5003938;28;20076;-66
2023/08/04 13:14:48;;;;;;;4.28;1.50;;;;;;;;;;5009758;28;20248;-67
2023/08/04 13:17:14;;;;;;;4.38;1.33;;;;;;;;;;5008090;28;20013;-67
2023/08/04 13:19:42;;;;;;;6.23;1.40;;;;;;;;;;5006740;28;20385;-66
2023/08/04 13:22:07;;;;;;;4.07;1.30;;;;;;;;;;5011631;28;20399;-66
2023/08/04 13:24:32;;;;;;;4.07;1.20;;;;;;;;;;5007052;28;20775;-67
2023/08/04 13:26:57;;;;;;;4.10;1.30;;;;;;;;;;5014027;28;20268;-66
2023/08/04 13:29:23;;;;;;;4.23;1.20;;;;;;;;;;5000446;28;20013;-67
2023/08/04 13:31:48;;;;;;;3.57;1.20;;;;;;;;;;5002314;28;20017;-65
2023/08/04 13:34:13;;;;;;;4.37;1.20;;;;;;;;;;5005454;28;20543;-66
2023/08/04 13:36:38;;;;;;;4.43;1.27;;;;;;;;;;5014064;28;20203;-67
2023/08/04 13:39:03;;;;;;;4.30;1.20;;;;;;;;;;5014596;28;20105;-67
2023/08/04 13:41:29;;;;;;;3.77;1.40;;;;;;;;;;5009491;28;20055;-66
2023/08/04 13:43:54;;;;;;;5.20;1.40;;;;;;;;;;5008658;28;20029;-63
2023/08/04 13:46:20;;;;;;;4.47;1.17;;;;;;;;;;5011497;28;20326;-65
2023/08/04 13:48:45;;;;;;;4.78;1.40;;;;;;;;;;5020559;28;20032;-66
2023/08/04 13:51:13;;;;;;;4.28;1.35;;;;;;;;;;5015231;28;20021;-66
2023/08/04 13:53:38;;;;;;;6.25;1.40;;;;;;;;;;5008972;28;20064;-66
2023/08/04 13:56:04;;;;;;;4.00;1.40;;;;;;;;;;5007079;28;20560;-66
2023/08/04 13:58:30;;;;;;;3.80;1.20;;;;;;;;;;5010633;28;20897;-66
2023/08/04 14:00:59;;;;;;;4.38;1.38;;;;;;;;;;5016961;28;20034;-66
2023/08/04 14:03:24;;;;;;;4.32;1.30;;;;;;;;;;5012998;28;20029;-67
2023/08/04 14:05:57;;;;;;;5.40;1.30;;;;;;;;;;5002977;28;20022;-66
2023/08/04 14:08:25;;;;;;;4.78;1.30;;;;;;;;;;5004145;28;20283;-66
2023/08/04 14:10:50;;;;;;;4.60;1.45;;;;;;;;;;5003193;28;20017;-66
2023/08/04 14:13:18;;;;;;;3.65;1.27;;;;;;;;;;5007792;28;20079;-66
2023/08/04 14:15:43;;;;;;;4.55;1.40;;;;;;;;;;5004499;28;20571;-67
2023/08/04 14:18:08;;;;;;;4.63;1.60;;;;;;;;;;5014761;28;20021;-67
2023/08/04 14:20:33;;;;;;;4.10;1.40;;;;;;;;;;5012104;28;20930;-67
2023/08/04 14:22:59;;;;;;;4.23;1.30;;;;;;;;;;5005760;28;20021;-68
2023/08/04 14:25:25;;;;;;;3.45;1.35;;;;;;;;;;5012545;28;20028;-65
2023/08/04 14:27:50;;;;;;;4.10;1.20;;;;;;;;;;5005612;28;20099;-66
2023/08/04 14:30:18;;;;;;;4.00;1.27;;;;;;;;;;5011424;28;20936;-66
2023/08/04 14:32:43;;;;;;;5.25;1.33;;;;;;;;;;5007693;28;20033;-66
2023/08/04 14:35:09;;;;;;;4.53;1.33;;;;;;;;;;4997960;28;20060;-67
2023/08/04 14:37:34;;;;;;;3.53;1.25;;;;;;;;;;5008464;28;20029;-69